Time;durP1;ratioP1;P1;durP2;ratioP2;P2;SDS_P1;SDS_P2;PMS_P1;PMS_P2;Temp;Humidity;BMP_temperature;BMP_pressure;BME280_temperature;BME280_humidity;BME280_pressure;Samples;Min_cycle;Max_cycle;Signal;HPM_P1;HPM_P2
2022/03/29 00:02:13;;;;;;;;;;;;;;;;;;4976729;28;20032;-64
2022/03/29 00:04:39;;;;;;;;;;;;;;;;;;4974723;28;19957;-64
2022/03/29 00:07:06;;;;;;;;;;;;;;;;;;4974937;28;20028;-64
2022/03/29 00:09:32;;;;;;;;;;;;;;;;;;4976225;28;20060;-63
2022/03/29 00:11:59;;;;;;;;;;;;;;;;;;4976348;28;19925;-64
2022/03/29 00:14:25;;;;;;;;;;;;;;;;;;4975159;28;20048;-63
2022/03/29 00:16:53;;;;;;;;;;;;;;;;;;4977031;28;20452;-64
2022/03/29 00:19:21;;;;;;;;;;;;;;;;;;4974820;28;19925;-63
2022/03/29 00:21:47;;;;;;;;;;;;;;;;;;4975526;28;20416;-63
2022/03/29 00:24:14;;;;;;;;;;;;;;;;;;4977327;28;19929;-64
2022/03/29 00:26:41;;;;;;;;;;;;;;;;;;4988699;28;19976;-63
2022/03/29 00:29:08;;;;;;;;;;;;;;;;;;4987224;28;19933;-63
2022/03/29 00:31:34;;;;;;;;;;;;;;;;;;4987261;28;19940;-63
2022/03/29 00:34:01;;;;;;;;;;;;;;;;;;4975294;28;20008;-64
2022/03/29 00:36:28;;;;;;;;;;;;;;;;;;4975773;28;19969;-63
2022/03/29 00:38:55;;;;;;;;;;;;;;;;;;4974399;28;19925;-63
2022/03/29 00:41:23;;;;;;;;;;;;;;;;;;4977560;28;19972;-63
2022/03/29 00:43:49;;;;;;;;;;;;;;;;;;4988887;28;19976;-63
2022/03/29 00:46:15;;;;;;;;;;;;;;;;;;4986632;28;19980;-64
2022/03/29 00:48:42;;;;;;;;;;;;;;;;;;4979351;28;20671;-63
2022/03/29 00:51:08;;;;;;;;;;;;;;;;;;4974142;28;20016;-63
2022/03/29 00:53:34;;;;;;;;;;;;;;;;;;4975565;28;20017;-63
2022/03/29 00:56:08;;;;;;;;;;;;;;;;;;4979021;28;19922;-63
2022/03/29 00:58:34;;;;;;;;;;;;;;;;;;4990070;28;19925;-63
2022/03/29 01:01:01;;;;;;;;;;;;;;;;;;4990213;28;19979;-63
2022/03/29 01:03:28;;;;;;;;;;;;;;;;;;4990954;28;19926;-63
2022/03/29 01:05:54;;;;;;;;;;;;;;;;;;4979210;28;19976;-63
2022/03/29 01:08:21;;;;;;;;;;;;;;;;;;4978921;28;21680;-63
2022/03/29 01:10:48;;;;;;;;;;;;;;;;;;4989920;28;19971;-63
2022/03/29 01:13:15;;;;;;;;;;;;;;;;;;4989550;28;19930;-63
2022/03/29 01:15:41;;;;;;;;;;;;;;;;;;4981041;28;20020;-63
2022/03/29 01:18:08;;;;;;;;;;;;;;;;;;4980632;28;20011;-63
2022/03/29 01:20:34;;;;;;;;;;;;;;;;;;4979606;28;20377;-63
2022/03/29 01:23:00;;;;;;;;;;;;;;;;;;4983781;28;20028;-63
2022/03/29 01:25:27;;;;;;;;;;;;;;;;;;4992033;28;20396;-63
2022/03/29 01:27:53;;;;;;;;;;;;;;;;;;4981238;28;20468;-63
2022/03/29 01:30:20;;;;;;;;;;;;;;;;;;4976619;28;20000;-63
2022/03/29 01:32:46;;;;;;;;;;;;;;;;;;4978503;28;20037;-63
2022/03/29 01:35:13;;;;;;;;;;;;;;;;;;4981471;28;20003;-63
2022/03/29 01:37:39;;;;;;;;;;;;;;;;;;4985441;28;19968;-63
2022/03/29 01:40:05;;;;;;;;;;;;;;;;;;4989715;28;19957;-63
2022/03/29 01:42:32;;;;;;;;;;;;;;;;;;4986926;28;20352;-63
2022/03/29 01:45:00;;;;;;;;;;;;;;;;;;4978626;28;19976;-63
2022/03/29 01:47:28;;;;;;;;;;;;;;;;;;4976437;28;20025;-63
2022/03/29 01:49:54;;;;;;;;;;;;;;;;;;4978880;28;19976;-63
2022/03/29 01:52:20;;;;;;;;;;;;;;;;;;4978401;28;20024;-63
2022/03/29 01:54:49;;;;;;;;;;;;;;;;;;4977295;28;19929;-63
2022/03/29 01:57:15;;;;;;;;;;;;;;;;;;4979135;28;19925;-65
2022/03/29 02:02:29;;;;;;;;;;;;;;;;;;4977522;28;20009;-63
2022/03/29 02:04:56;;;;;;;;;;;;;;;;;;4977951;28;20415;-63
2022/03/29 02:07:23;;;;;;;;;;;;;;;;;;4975875;28;20373;-63
2022/03/29 02:09:53;;;;;;;;;;;;;;;;;;4976978;28;20001;-63
2022/03/29 02:12:19;;;;;;;;;;;;;;;;;;4987045;28;20012;-63
2022/03/29 02:14:45;;;;;;;;;;;;;;;;;;4990405;28;19922;-63
2022/03/29 02:17:12;;;;;;;;;;;;;;;;;;4986191;28;20048;-63
2022/03/29 02:19:38;;;;;;;;;;;;;;;;;;4987594;28;19936;-63
2022/03/29 02:22:04;;;;;;;;;;;;;;;;;;4985727;28;19980;-63
2022/03/29 02:24:38;;;;;;;;;;;;;;;;;;4988458;28;20008;-63
2022/03/29 02:27:04;;;;;;;;;;;;;;;;;;4989240;28;19977;-63
2022/03/29 02:29:30;;;;;;;;;;;;;;;;;;4988301;28;20418;-63
2022/03/29 02:31:57;;;;;;;;;;;;;;;;;;4988093;28;20016;-63
2022/03/29 02:34:23;;;;;;;;;;;;;;;;;;4989578;28;20044;-63
2022/03/29 02:36:50;;;;;;;;;;;;;;;;;;4988023;28;19961;-63
2022/03/29 02:39:17;;;;;;;;;;;;;;;;;;4987892;28;19980;-63
2022/03/29 02:41:43;;;;;;;;;;;;;;;;;;4989898;28;20389;-63
2022/03/29 02:44:09;;;;;;;;;;;;;;;;;;4986776;28;19956;-63
2022/03/29 02:46:44;;;;;;;;;;;;;;;;;;4989039;28;20448;-63
2022/03/29 02:49:10;;;;;;;;;;;;;;;;;;4988388;28;19966;-63
2022/03/29 02:51:36;;;;;;;;;;;;;;;;;;4988500;28;20048;-63
2022/03/29 02:54:06;;;;;;;;;;;;;;;;;;4989268;28;20032;-63
2022/03/29 02:56:32;;;;;;;;;;;;;;;;;;4988369;28;19968;-63
2022/03/29 02:58:59;;;;;;;;;;;;;;;;;;4990120;28;20017;-63
2022/03/29 03:01:30;;;;;;;;;;;;;;;;;;4986347;28;20005;-63
2022/03/29 03:03:57;;;;;;;;;;;;;;;;;;4987688;28;19973;-63
2022/03/29 03:06:24;;;;;;;;;;;;;;;;;;4984951;28;19961;-63
2022/03/29 03:08:52;;;;;;;;;;;;;;;;;;4986378;28;19977;-63
2022/03/29 03:11:18;;;;;;;;;;;;;;;;;;4988806;28;20020;-63
2022/03/29 03:13:44;;;;;;;;;;;;;;;;;;4989584;28;19965;-63
2022/03/29 03:16:17;;;;;;;;;;;;;;;;;;4987743;28;20020;-63
2022/03/29 03:18:43;;;;;;;;;;;;;;;;;;4988766;28;20028;-63
2022/03/29 03:21:09;;;;;;;;;;;;;;;;;;4985139;28;20457;-63
2022/03/29 03:23:36;;;;;;;;;;;;;;;;;;4987890;28;20012;-63
2022/03/29 03:26:03;;;;;;;;;;;;;;;;;;4988969;28;20021;-63
2022/03/29 03:28:29;;;;;;;;;;;;;;;;;;4986038;28;19968;-63
2022/03/29 03:30:56;;;;;;;;;;;;;;;;;;4986559;28;20016;-63
2022/03/29 03:33:22;;;;;;;;;;;;;;;;;;4987859;28;19925;-63
2022/03/29 03:35:48;;;;;;;;;;;;;;;;;;4986394;28;19921;-63
2022/03/29 03:38:15;;;;;;;;;;;;;;;;;;4989062;28;20004;-63
2022/03/29 03:40:41;;;;;;;;;;;;;;;;;;4988403;28;20393;-64
2022/03/29 03:43:07;;;;;;;;;;;;;;;;;;4988416;28;19961;-63
2022/03/29 03:45:34;;;;;;;;;;;;;;;;;;4986743;28;20396;-63
2022/03/29 03:48:00;;;;;;;;;;;;;;;;;;4988554;28;19969;-63
2022/03/29 03:50:27;;;;;;;;;;;;;;;;;;4987984;28;19963;-63
2022/03/29 03:52:54;;;;;;;;;;;;;;;;;;4981951;28;20020;-63
2022/03/29 03:55:20;;;;;;;;;;;;;;;;;;4987321;28;20017;-63
2022/03/29 03:57:47;;;;;;;;;;;;;;;;;;4985602;28;19976;-63
2022/03/29 04:00:13;;;;;;;;;;;;;;;;;;4985023;28;19980;-63
2022/03/29 04:02:40;;;;;;;;;;;;;;;;;;4985196;28;20009;-63
2022/03/29 04:05:13;;;;;;;;;;;;;;;;;;4986449;28;19930;-63
2022/03/29 04:07:40;;;;;;;;;;;;;;;;;;4989135;28;19929;-63
2022/03/29 04:10:07;;;;;;;;;;;;;;;;;;4986990;28;19964;-63
2022/03/29 04:12:33;;;;;;;;;;;;;;;;;;4986802;28;20437;-63
2022/03/29 04:15:06;;;;;;;;;;;;;;;;;;4987166;28;19925;-63
2022/03/29 04:17:32;;;;;;;;;;;;;;;;;;4987245;28;20380;-63
2022/03/29 04:20:02;;;;;;;;;;;;;;;;;;4988418;28;19984;-63
2022/03/29 04:22:28;;;;;;;;;;;;;;;;;;4988093;28;19980;-63
2022/03/29 04:24:55;;;;;;;;;;;;;;;;;;4982479;28;20024;-64
2022/03/29 04:27:21;;;;;;;;;;;;;;;;;;4985258;28;20037;-63
2022/03/29 04:29:54;;;;;;;;;;;;;;;;;;4988031;28;20025;-63
2022/03/29 04:32:20;;;;;;;;;;;;;;;;;;4989623;28;19961;-64
2022/03/29 04:34:48;;;;;;;;;;;;;;;;;;4986108;28;19984;-63
2022/03/29 04:37:16;;;;;;;;;;;;;;;;;;4987573;28;19980;-64
2022/03/29 04:39:42;;;;;;;;;;;;;;;;;;4987124;28;20020;-64
2022/03/29 04:42:08;;;;;;;;;;;;;;;;;;4984881;28;20369;-64
2022/03/29 04:44:35;;;;;;;;;;;;;;;;;;4974199;28;19930;-63
2022/03/29 04:47:01;;;;;;;;;;;;;;;;;;4984650;28;20029;-63
2022/03/29 04:49:28;;;;;;;;;;;;;;;;;;4987968;28;20404;-63
2022/03/29 04:52:01;;;;;;;;;;;;;;;;;;4986943;28;20004;-63
2022/03/29 04:54:27;;;;;;;;;;;;;;;;;;4985094;28;20369;-64
2022/03/29 04:56:54;;;;;;;;;;;;;;;;;;4985647;28;19960;-64
2022/03/29 04:59:20;;;;;;;;;;;;;;;;;;4988437;28;19926;-65
2022/03/29 05:01:47;;;;;;;;;;;;;;;;;;4986874;28;20016;-64
2022/03/29 05:04:13;;;;;;;;;;;;;;;;;;4986029;28;20028;-64
2022/03/29 05:06:43;;;;;;;;;;;;;;;;;;4988297;28;19925;-64
2022/03/29 05:09:09;;;;;;;;;;;;;;;;;;4987242;28;20345;-64
2022/03/29 05:11:35;;;;;;;;;;;;;;;;;;4985133;28;19961;-64
2022/03/29 05:14:09;;;;;;;;;;;;;;;;;;4986231;28;20084;-64
2022/03/29 05:16:35;;;;;;;;;;;;;;;;;;4987099;28;20049;-64
2022/03/29 05:19:02;;;;;;;;;;;;;;;;;;4988212;28;19984;-64
2022/03/29 05:21:30;;;;;;;;;;;;;;;;;;4985468;28;20440;-64
2022/03/29 05:23:56;;;;;;;;;;;;;;;;;;4989127;28;20104;-63
2022/03/29 05:26:22;;;;;;;;;;;;;;;;;;4986877;28;19960;-64
2022/03/29 05:28:50;;;;;;;;;;;;;;;;;;4985091;28;20361;-64
2022/03/29 05:31:17;;;;;;;;;;;;;;;;;;4985537;28;19960;-64
2022/03/29 05:33:43;;;;;;;;;;;;;;;;;;4987846;28;19926;-64
2022/03/29 05:36:12;;;;;;;;;;;;;;;;;;4986326;28;20470;-64
2022/03/29 05:38:38;;;;;;;;;;;;;;;;;;4985644;28;19968;-64
2022/03/29 05:41:04;;;;;;;;;;;;;;;;;;4982476;28;19964;-64
2022/03/29 05:43:32;;;;;;;;;;;;;;;;;;4990415;28;19975;-64
2022/03/29 05:48:53;;;;;;;;;;;;;;;;;;4988171;28;19922;-64
2022/03/29 05:51:19;;;;;;;;;;;;;;;;;;4985864;28;20684;-64
2022/03/29 05:53:46;;;;;;;;;;;;;;;;;;4991531;28;19932;-64
2022/03/29 05:56:19;;;;;;;;;;;;;;;;;;4990254;28;19933;-64
2022/03/29 05:58:45;;;;;;;;;;;;;;;;;;4990177;28;20373;-64
2022/03/29 06:01:11;;;;;;;;;;;;;;;;;;4988877;28;19965;-64
2022/03/29 06:03:45;;;;;;;;;;;;;;;;;;4987795;28;19926;-64
2022/03/29 06:06:13;;;;;;;;;;;;;;;;;;4983351;28;19925;-64
2022/03/29 06:08:39;;;;;;;;;;;;;;;;;;4988806;28;19932;-64
2022/03/29 06:11:07;;;;;;;;;;;;;;;;;;4988879;28;20004;-64
2022/03/29 06:13:33;;;;;;;;;;;;;;;;;;4989086;28;19921;-64
2022/03/29 06:16:02;;;;;;;;;;;;;;;;;;4988041;28;19991;-65
2022/03/29 06:18:36;;;;;;;;;;;;;;;;;;4990552;28;20835;-64
2022/03/29 06:21:02;;;;;;;;;;;;;;;;;;4989415;28;20022;-64
2022/03/29 06:23:29;;;;;;;;;;;;;;;;;;4991077;28;19965;-64
2022/03/29 06:25:57;;;;;;;;;;;;;;;;;;4988625;28;19925;-64
2022/03/29 06:28:23;;;;;;;;;;;;;;;;;;4989011;28;20593;-64
2022/03/29 06:30:50;;;;;;;;;;;;;;;;;;4991358;28;19976;-64
2022/03/29 06:33:17;;;;;;;;;;;;;;;;;;4987795;28;19933;-65
2022/03/29 06:35:43;;;;;;;;;;;;;;;;;;4991864;28;19973;-64
2022/03/29 06:38:09;;;;;;;;;;;;;;;;;;4987399;28;19971;-64
2022/03/29 06:40:43;;;;;;;;;;;;;;;;;;4989131;28;20020;-65
2022/03/29 06:43:09;;;;;;;;;;;;;;;;;;4988953;28;19965;-65
2022/03/29 06:45:35;;;;;;;;;;;;;;;;;;4991237;28;20004;-65
2022/03/29 06:48:09;;;;;;;;;;;;;;;;;;4990175;28;19925;-65
2022/03/29 06:50:35;;;;;;;;;;;;;;;;;;4987594;28;20385;-65
2022/03/29 06:53:01;;;;;;;;;;;;;;;;;;4989409;28;19961;-65
2022/03/29 06:55:28;;;;;;;;;;;;;;;;;;4989403;28;19968;-65
2022/03/29 06:57:55;;;;;;;;;;;;;;;;;;4989803;28;20017;-65
2022/03/29 07:00:21;;;;;;;;;;;;;;;;;;4991244;28;19964;-66
2022/03/29 07:02:48;;;;;;;;;;;;;;;;;;4990946;28;19964;-66
2022/03/29 07:05:14;;;;;;;;;;;;;;;;;;4989968;28;20006;-66
2022/03/29 07:07:41;;;;;;;;;;;;;;;;;;4989029;28;19969;-65
2022/03/29 07:12:59;;;;;;;;;;;;;;;;;;4988817;28;20016;-66
2022/03/29 07:15:25;;;;;;;;;;;;;;;;;;4987990;28;20066;-66
2022/03/29 07:17:52;;;;;;;;;;;;;;;;;;4986914;28;19930;-66
2022/03/29 07:20:19;;;;;;;;;;;;;;;;;;4986697;28;20017;-66
2022/03/29 07:22:52;;;;;;;;;;;;;;;;;;4987335;28;19976;-66
2022/03/29 07:25:18;;;;;;;;;;;;;;;;;;4986785;28;19960;-66
2022/03/29 07:27:44;;;;;;;;;;;;;;;;;;4989691;28;19956;-66
2022/03/29 07:30:18;;;;;;;;;;;;;;;;;;4988476;28;20393;-67
2022/03/29 07:32:44;;;;;;;;;;;;;;;;;;4990901;28;19964;-67
2022/03/29 07:35:10;;;;;;;;;;;;;;;;;;4988163;28;20468;-66
2022/03/29 07:37:44;;;;;;;;;;;;;;;;;;4988035;28;19964;-67
2022/03/29 07:40:10;;;;;;;;;;;;;;;;;;4987806;28;20368;-67
2022/03/29 07:42:37;;;;;;;;;;;;;;;;;;4988836;28;20056;-67
2022/03/29 07:45:11;;;;;;;;;;;;;;;;;;4985845;28;19972;-67
2022/03/29 07:47:37;;;;;;;;;;;;;;;;;;4990537;28;20017;-67
2022/03/29 07:50:24;;;;;;;;;;;;;;;;;;4987639;28;20284;-67
2022/03/29 07:53:00;;;;;;;;;;;;;;;;;;4986171;28;20484;-68
2022/03/29 07:55:27;;;;;;;;;;;;;;;;;;4986978;28;19929;-67
2022/03/29 07:58:06;;;;;;;;;;;;;;;;;;4989108;28;19922;-67
2022/03/29 08:00:32;;;;;;;;;;;;;;;;;;4986411;28;19976;-67
2022/03/29 08:02:59;;;;;;;;;;;;;;;;;;4988472;28;19925;-67
2022/03/29 08:05:26;;;;;;;;;;;;;;;;;;4986816;28;19922;-68
2022/03/29 08:07:59;;;;;;;;;;;;;;;;;;4988817;28;20441;-67
2022/03/29 08:10:27;;;;;;;;;;;;;;;;;;4988792;28;20405;-68
2022/03/29 08:12:54;;;;;;;;;;;;;;;;;;4987426;28;19968;-68
2022/03/29 08:15:21;;;;;;;;;;;;;;;;;;4989163;28;20033;-68
2022/03/29 08:17:49;;;;;;;;;;;;;;;;;;4983470;28;19981;-68
2022/03/29 08:20:16;;;;;;;;;;;;;;;;;;4983860;28;19925;-68
2022/03/29 08:22:44;;;;;;;;;;;;;;;;;;4986738;28;20008;-68
2022/03/29 08:25:12;;;;;;;;;;;;;;;;;;4987623;28;19995;-68
2022/03/29 08:27:38;;;;;;;;;;;;;;;;;;4973239;28;20573;-68
2022/03/29 08:30:12;;;;;;;;;;;;;;;;;;4987306;28;19957;-68
2022/03/29 08:32:38;;;;;;;;;;;;;;;;;;4970493;28;19957;-68
2022/03/29 08:35:05;;;;;;;;;;;;;;;;;;4985864;28;20002;-68
2022/03/29 08:37:31;;;;;;;;;;;;;;;;;;4988646;28;19965;-68
2022/03/29 08:39:57;;;;;;;;;;;;;;;;;;4988414;28;20020;-68
2022/03/29 08:42:24;;;;;;;;;;;;;;;;;;4988503;28;19969;-68
2022/03/29 08:44:51;;;;;;;;;;;;;;;;;;4987509;28;20502;-68
2022/03/29 08:47:17;;;;;;;;;;;;;;;;;;4989710;28;19957;-68
2022/03/29 08:49:43;;;;;;;;;;;;;;;;;;4987708;28;20004;-68
2022/03/29 08:52:20;;;;;;;;;;;;;;;;;;4988869;28;20385;-69
2022/03/29 08:54:46;;;;;;;;;;;;;;;;;;4985684;28;19922;-68
2022/03/29 08:57:13;;;;;;;;;;;;;;;;;;4989235;28;19976;-68
2022/03/29 08:59:46;;;;;;;;;;;;;;;;;;4987123;28;19976;-69
2022/03/29 09:02:12;;;;;;;;;;;;;;;;;;4986678;28;19957;-69
2022/03/29 09:04:39;;;;;;;;;;;;;;;;;;4987047;28;20065;-69
2022/03/29 09:07:12;;;;;;;;;;;;;;;;;;4988547;28;20019;-69
2022/03/29 09:09:38;;;;;;;;;;;;;;;;;;4986949;28;19968;-69
2022/03/29 09:12:05;;;;;;;;;;;;;;;;;;4986996;28;19964;-69
2022/03/29 09:14:38;;;;;;;;;;;;;;;;;;4986937;28;19972;-69
2022/03/29 09:17:04;;;;;;;;;;;;;;;;;;4991225;28;20499;-69
2022/03/29 09:19:30;;;;;;;;;;;;;;;;;;4990589;28;20341;-69
2022/03/29 09:22:04;;;;;;;;;;;;;;;;;;4991716;28;20381;-69
2022/03/29 09:24:35;;;;;;;;;;;;;;;;;;4990154;28;19937;-69
2022/03/29 09:27:01;;;;;;;;;;;;;;;;;;4990981;28;20012;-70
2022/03/29 09:29:28;;;;;;;;;;;;;;;;;;4990579;28;19979;-69
2022/03/29 09:31:54;;;;;;;;;;;;;;;;;;4990202;28;20004;-70
2022/03/29 09:34:20;;;;;;;;;;;;;;;;;;4990336;28;19932;-69
2022/03/29 09:36:48;;;;;;;;;;;;;;;;;;4991787;28;20042;-70
2022/03/29 09:39:14;;;;;;;;;;;;;;;;;;4989825;28;19926;-70
2022/03/29 09:41:40;;;;;;;;;;;;;;;;;;4990521;28;20802;-70
2022/03/29 09:44:16;;;;;;;;;;;;;;;;;;4990844;28;19997;-70
2022/03/29 09:46:43;;;;;;;;;;;;;;;;;;4992192;28;19988;-70
2022/03/29 09:49:09;;;;;;;;;;;;;;;;;;4990602;28;20020;-70
2022/03/29 09:51:36;;;;;;;;;;;;;;;;;;4987059;28;19925;-70
2022/03/29 09:54:03;;;;;;;;;;;;;;;;;;4988240;28;19988;-70
2022/03/29 09:56:30;;;;;;;;;;;;;;;;;;4987430;28;20016;-70
2022/03/29 09:59:22;;;;;;;;;;;;;;;;;;4989192;28;20094;-70
2022/03/29 10:01:48;;;;;;;;;;;;;;;;;;4990222;28;20019;-70
2022/03/29 10:04:17;;;;;;;;;;;;;;;;;;4990138;28;19971;-70
2022/03/29 10:06:44;;;;;;;;;;;;;;;;;;4989845;28;20384;-70
2022/03/29 10:09:25;;;;;;;;;;;;;;;;;;4990938;28;19981;-70
2022/03/29 10:11:59;;;;;;;;;;;;;;;;;;4990505;28;19925;-70
2022/03/29 10:14:25;;;;;;;;;;;;;;;;;;4991438;28;19969;-71
2022/03/29 10:16:52;;;;;;;;;;;;;;;;;;4988971;28;19965;-71
2022/03/29 10:19:19;;;;;;;;;;;;;;;;;;4989892;28;19922;-71
2022/03/29 10:21:46;;;;;;;;;;;;;;;;;;4992207;28;20057;-70
2022/03/29 10:24:13;;;;;;;;;;;;;;;;;;4985967;28;19928;-71
2022/03/29 10:26:39;;;;;;;;;;;;;;;;;;4984253;28;20021;-71
2022/03/29 10:29:06;;;;;;;;;;;;;;;;;;4990643;28;20012;-71
2022/03/29 10:31:33;;;;;;;;;;;;;;;;;;4987558;28;19972;-71
2022/03/29 10:34:00;;;;;;;;;;;;;;;;;;4974593;28;19926;-71
2022/03/29 10:36:26;;;;;;;;;;;;;;;;;;4990210;28;20005;-71
2022/03/29 10:38:53;;;;;;;;;;;;;;;;;;4989020;28;19976;-68
2022/03/29 10:41:20;;;;;;;;;;;;;;;;;;4984500;28;19980;-71
2022/03/29 10:43:46;;;;;;;;;;;;;;;;;;4989734;28;20345;-70
2022/03/29 10:46:15;;;;;;;;;;;;;;;;;;4990016;28;19926;-70
2022/03/29 10:48:49;;;;;;;;;;;;;;;;;;4988521;28;19926;-70
2022/03/29 10:51:15;;;;;;;;;;;;;;;;;;4985846;28;19983;-70
2022/03/29 10:53:47;;;;;;;;;;;;;;;;;;4987670;28;19925;-70
2022/03/29 10:56:20;;;;;;;;;;;;;;;;;;4989658;28;20025;-70
2022/03/29 10:58:46;;;;;;;;;;;;;;;;;;4989802;28;20395;-70
2022/03/29 11:01:12;;;;;;;;;;;;;;;;;;4990618;28;20012;-70
2022/03/29 11:03:40;;;;;;;;;;;;;;;;;;4988269;28;19926;-70
2022/03/29 11:06:06;;;;;;;;;;;;;;;;;;4989123;28;19929;-70
2022/03/29 11:08:33;;;;;;;;;;;;;;;;;;4988655;28;20000;-70
2022/03/29 11:11:06;;;;;;;;;;;;;;;;;;4989187;28;19922;-70
2022/03/29 11:13:32;;;;;;;;;;;;;;;;;;4987356;28;20392;-70
2022/03/29 11:16:02;;;;;;;;;;;;;;;;;;4985722;28;20404;-70
2022/03/29 11:18:35;;;;;;;;;;;;;;;;;;4975376;28;19941;-70
2022/03/29 11:21:04;;;;;;;;;;;;;;;;;;4990036;28;20397;-70
2022/03/29 11:23:31;;;;;;;;;;;;;;;;;;4988787;28;19925;-70
2022/03/29 11:25:57;;;;;;;;;;;;;;;;;;4989894;28;19973;-70
2022/03/29 11:28:23;;;;;;;;;;;;;;;;;;4990315;28;19957;-70
2022/03/29 11:30:50;;;;;;;;;;;;;;;;;;4986400;28;20012;-70
2022/03/29 11:33:17;;;;;;;;;;;;;;;;;;4988920;28;20444;-71
2022/03/29 11:35:44;;;;;;;;;;;;;;;;;;4988720;28;20374;-71
2022/03/29 11:38:10;;;;;;;;;;;;;;;;;;4988112;28;20045;-71
2022/03/29 11:40:37;;;;;;;;;;;;;;;;;;4987762;28;20416;-71
2022/03/29 11:43:05;;;;;;;;;;;;;;;;;;4987587;28;20439;-71
2022/03/29 11:45:33;;;;;;;;;;;;;;;;;;4989303;28;20473;-72
2022/03/29 11:48:00;;;;;;;;;;;;;;;;;;4988627;28;19975;-71
2022/03/29 11:50:26;;;;;;;;;;;;;;;;;;4988822;28;19925;-71
2022/03/29 11:52:53;;;;;;;;;;;;;;;;;;4984989;28;20024;-70
2022/03/29 11:55:22;;;;;;;;;;;;;;;;;;4986722;28;20021;-70
2022/03/29 11:57:48;;;;;;;;;;;;;;;;;;4989918;28;19965;-70
2022/03/29 12:00:14;;;;;;;;;;;;;;;;;;4972898;28;20008;-70
2022/03/29 12:02:41;;;;;;;;;;;;;;;;;;4988888;28;19957;-70
2022/03/29 12:05:07;;;;;;;;;;;;;;;;;;4988556;28;19929;-70
2022/03/29 12:07:34;;;;;;;;;;;;;;;;;;4987091;28;19968;-70
2022/03/29 12:10:04;;;;;;;;;;;;;;;;;;4986862;28;19984;-71
2022/03/29 12:12:30;;;;;;;;;;;;;;;;;;4985153;28;20590;-71
2022/03/29 12:14:56;;;;;;;;;;;;;;;;;;4987823;28;20004;-70
2022/03/29 12:17:24;;;;;;;;;;;;;;;;;;4987140;28;20013;-70
2022/03/29 12:19:50;;;;;;;;;;;;;;;;;;4989072;28;20040;-70
2022/03/29 12:22:17;;;;;;;;;;;;;;;;;;4988620;28;20481;-70
2022/03/29 12:24:44;;;;;;;;;;;;;;;;;;4988023;28;19982;-70
2022/03/29 12:27:13;;;;;;;;;;;;;;;;;;4985833;28;19926;-70
2022/03/29 12:29:39;;;;;;;;;;;;;;;;;;4985839;28;20503;-70
2022/03/29 12:32:06;;;;;;;;;;;;;;;;;;4984625;28;19968;-70
2022/03/29 12:34:32;;;;;;;;;;;;;;;;;;4986213;28;20424;-70
2022/03/29 12:36:58;;;;;;;;;;;;;;;;;;4985069;28;19969;-70
2022/03/29 12:39:25;;;;;;;;;;;;;;;;;;4981534;28;19999;-70
2022/03/29 12:41:52;;;;;;;;;;;;;;;;;;4984557;28;19968;-70
2022/03/29 12:44:18;;;;;;;;;;;;;;;;;;4988029;28;19976;-70
2022/03/29 12:46:52;;;;;;;;;;;;;;;;;;4983286;28;20415;-68
2022/03/29 12:49:18;;;;;;;;;;;;;;;;;;4988816;28;20021;-69
2022/03/29 12:51:45;;;;;;;;;;;;;;;;;;4991110;28;20384;-69
2022/03/29 12:54:11;;;;;;;;;;;;;;;;;;4993877;28;20372;-70
2022/03/29 12:56:37;;;;;;;;;;;;;;;;;;4992240;28;19995;-70
2022/03/29 12:59:04;;;;;;;;;;;;;;;;;;4992640;28;19968;-70
2022/03/29 13:01:37;;;;;;;;;;;;;;;;;;4992357;28;20389;-70
2022/03/29 13:04:03;;;;;;;;;;;;;;;;;;4991300;28;19921;-70
2022/03/29 13:06:30;;;;;;;;;;;;;;;;;;4992504;28;19925;-70
2022/03/29 13:09:03;;;;;;;;;;;;;;;;;;4992682;28;19991;-69
2022/03/29 13:11:29;;;;;;;;;;;;;;;;;;4993175;28;20041;-69
2022/03/29 13:13:55;;;;;;;;;;;;;;;;;;4992459;28;19930;-69
2022/03/29 13:16:23;;;;;;;;;;;;;;;;;;4991290;28;19980;-69
2022/03/29 13:18:49;;;;;;;;;;;;;;;;;;4991641;28;19977;-69
2022/03/29 13:21:19;;;;;;;;;;;;;;;;;;4993512;28;20378;-69
2022/03/29 13:23:58;;;;;;;;;;;;;;;;;;4991142;28;19937;-69
2022/03/29 13:26:24;;;;;;;;;;;;;;;;;;4990850;28;19957;-69
2022/03/29 13:28:51;;;;;;;;;;;;;;;;;;4988751;28;19969;-68
2022/03/29 13:31:19;;;;;;;;;;;;;;;;;;4991083;28;20309;-69
2022/03/29 13:33:46;;;;;;;;;;;;;;;;;;4992002;28;19921;-69
2022/03/29 13:36:12;;;;;;;;;;;;;;;;;;4988743;28;19964;-69
2022/03/29 13:38:38;;;;;;;;;;;;;;;;;;4992465;28;19921;-69
2022/03/29 13:41:05;;;;;;;;;;;;;;;;;;4989758;28;20052;-70
2022/03/29 13:43:33;;;;;;;;;;;;;;;;;;4988949;28;20000;-72
2022/03/29 13:46:02;;;;;;;;;;;;;;;;;;4990019;28;20385;-70
2022/03/29 13:48:44;;;;;;;;;;;;;;;;;;4990052;28;20028;-71
2022/03/29 13:51:17;;;;;;;;;;;;;;;;;;4991403;28;20176;-72
2022/03/29 13:53:43;;;;;;;;;;;;;;;;;;4990162;28;19968;-73
2022/03/29 13:56:10;;;;;;;;;;;;;;;;;;4991932;28;19930;-74
2022/03/29 13:58:39;;;;;;;;;;;;;;;;;;4991125;28;19961;-74
2022/03/29 14:01:05;;;;;;;;;;;;;;;;;;4990502;28;20008;-73
2022/03/29 14:03:32;;;;;;;;;;;;;;;;;;4990526;28;20373;-74
2022/03/29 14:06:05;;;;;;;;;;;;;;;;;;4988133;28;20432;-73
2022/03/29 14:08:31;;;;;;;;;;;;;;;;;;4989971;28;20042;-74
2022/03/29 14:10:58;;;;;;;;;;;;;;;;;;4990755;28;19925;-74
2022/03/29 14:13:28;;;;;;;;;;;;;;;;;;4990471;28;20525;-73
2022/03/29 14:15:54;;;;;;;;;;;;;;;;;;4987848;28;19976;-74
2022/03/29 14:18:22;;;;;;;;;;;;;;;;;;4990352;28;20004;-74
2022/03/29 14:20:50;;;;;;;;;;;;;;;;;;4990965;28;20511;-74
2022/03/29 14:23:16;;;;;;;;;;;;;;;;;;4988553;28;20012;-73
2022/03/29 14:25:43;;;;;;;;;;;;;;;;;;4990633;28;19953;-73
2022/03/29 14:28:09;;;;;;;;;;;;;;;;;;4988494;28;19980;-71
2022/03/29 14:30:35;;;;;;;;;;;;;;;;;;4989865;28;19921;-71
2022/03/29 14:33:02;;;;;;;;;;;;;;;;;;4986855;28;19926;-70
2022/03/29 14:35:29;;;;;;;;;;;;;;;;;;4988415;28;19921;-70
2022/03/29 14:37:55;;;;;;;;;;;;;;;;;;4990198;28;20412;-69
2022/03/29 14:40:22;;;;;;;;;;;;;;;;;;4990048;28;19922;-70
2022/03/29 14:42:48;;;;;;;;;;;;;;;;;;4989164;28;19925;-71
2022/03/29 14:45:15;;;;;;;;;;;;;;;;;;4988133;28;20020;-70
2022/03/29 14:47:41;;;;;;;;;;;;;;;;;;4990148;28;19957;-70
2022/03/29 14:50:10;;;;;;;;;;;;;;;;;;4986745;28;20435;-70
2022/03/29 14:52:37;;;;;;;;;;;;;;;;;;4986241;28;19961;-70
2022/03/29 14:55:03;;;;;;;;;;;;;;;;;;4988078;28;19960;-71
2022/03/29 14:57:30;;;;;;;;;;;;;;;;;;4988376;28;19945;-71
2022/03/29 14:59:56;;;;;;;;;;;;;;;;;;4989545;28;20020;-70
2022/03/29 15:02:22;;;;;;;;;;;;;;;;;;4979266;28;19952;-71
2022/03/29 15:04:49;;;;;;;;;;;;;;;;;;4985945;28;19922;-71
2022/03/29 15:07:16;;;;;;;;;;;;;;;;;;4990013;28;19953;-71
2022/03/29 15:09:42;;;;;;;;;;;;;;;;;;4987227;28;20016;-71
2022/03/29 15:12:09;;;;;;;;;;;;;;;;;;4986500;28;19925;-70
2022/03/29 15:14:35;;;;;;;;;;;;;;;;;;4990242;28;20012;-71
2022/03/29 15:17:01;;;;;;;;;;;;;;;;;;4989607;28;20027;-71
2022/03/29 15:19:28;;;;;;;;;;;;;;;;;;4988069;28;19980;-72
2022/03/29 15:21:55;;;;;;;;;;;;;;;;;;4990310;28;20083;-71
2022/03/29 15:24:21;;;;;;;;;;;;;;;;;;4987737;28;19929;-72
2022/03/29 15:26:48;;;;;;;;;;;;;;;;;;4988744;28;19965;-72
2022/03/29 15:29:14;;;;;;;;;;;;;;;;;;4988771;28;20518;-72
2022/03/29 15:31:41;;;;;;;;;;;;;;;;;;4987523;28;19972;-73
2022/03/29 15:34:07;;;;;;;;;;;;;;;;;;4989355;28;19921;-72
2022/03/29 15:36:35;;;;;;;;;;;;;;;;;;4989124;28;20433;-73
2022/03/29 15:39:01;;;;;;;;;;;;;;;;;;4988670;28;20028;-72
2022/03/29 15:41:27;;;;;;;;;;;;;;;;;;4986590;28;19976;-73
2022/03/29 15:43:54;;;;;;;;;;;;;;;;;;4987526;28;19984;-73
2022/03/29 15:46:20;;;;;;;;;;;;;;;;;;4989797;28;19983;-73
2022/03/29 15:48:47;;;;;;;;;;;;;;;;;;4989183;28;19922;-73
2022/03/29 15:51:13;;;;;;;;;;;;;;;;;;4984922;28;20024;-73
2022/03/29 15:53:39;;;;;;;;;;;;;;;;;;4976665;28;20032;-73
2022/03/29 15:56:06;;;;;;;;;;;;;;;;;;4988148;28;20016;-73
2022/03/29 15:58:32;;;;;;;;;;;;;;;;;;4988658;28;20456;-73
2022/03/29 16:01:13;;;;;;;;;;;;;;;;;;4984035;28;19973;-73
2022/03/29 16:03:40;;;;;;;;;;;;;;;;;;4976349;28;19953;-73
2022/03/29 16:06:06;;;;;;;;;;;;;;;;;;4975667;28;19933;-73
2022/03/29 16:08:34;;;;;;;;;;;;;;;;;;4978965;28;20365;-73
2022/03/29 16:11:01;;;;;;;;;;;;;;;;;;4983906;28;20437;-73
2022/03/29 16:13:28;;;;;;;;;;;;;;;;;;4985151;28;19925;-73
2022/03/29 16:15:54;;;;;;;;;;;;;;;;;;4987289;28;19964;-73
2022/03/29 16:18:21;;;;;;;;;;;;;;;;;;4986327;28;20360;-73
2022/03/29 16:20:47;;;;;;;;;;;;;;;;;;4988081;28;20015;-73
2022/03/29 16:23:14;;;;;;;;;;;;;;;;;;4986288;28;19976;-73
2022/03/29 16:25:41;;;;;;;;;;;;;;;;;;4987713;28;19922;-73
2022/03/29 16:28:07;;;;;;;;;;;;;;;;;;4986439;28;20063;-73
2022/03/29 16:30:34;;;;;;;;;;;;;;;;;;4985023;28;19922;-73
2022/03/29 16:33:01;;;;;;;;;;;;;;;;;;4989214;28;20028;-73
2022/03/29 16:35:27;;;;;;;;;;;;;;;;;;4988965;28;20017;-73
2022/03/29 16:37:55;;;;;;;;;;;;;;;;;;4985642;28;20353;-72
2022/03/29 16:40:21;;;;;;;;;;;;;;;;;;4985574;28;20024;-73
2022/03/29 16:42:47;;;;;;;;;;;;;;;;;;4988102;28;20028;-73
2022/03/29 16:45:14;;;;;;;;;;;;;;;;;;4987906;28;19925;-73
2022/03/29 16:47:41;;;;;;;;;;;;;;;;;;4990269;28;19922;-72
2022/03/29 16:50:07;;;;;;;;;;;;;;;;;;4986167;28;20025;-74
2022/03/29 16:52:34;;;;;;;;;;;;;;;;;;4985422;28;19961;-73
2022/03/29 16:55:00;;;;;;;;;;;;;;;;;;4988716;28;19969;-72
2022/03/29 16:57:27;;;;;;;;;;;;;;;;;;4984947;28;20020;-72